Bunkie, Louisiana
Current Conditions -  °F | °C
As of 4:35 PM on Monday 24 Nov 2014 (Local Time) from KOPL Reporting Station
Clear Clear  
Wind Chill: 59°   Ceiling: Unl
Heat Index: 59°   Visibility: 10mi
Dew Point: 38°   Wind: 7mph
Humidity: 46%   Direction: 350°N
Pressure: 29.99"   Gusts: NA
Location:  30.95°N, 92.18°W
Report Text: KOPL 242235Z AUTO 35006KT 10SM CLR 15/04 A2999 RMK AO2 LTG DSNT E T01500035
Loading
Personal Weather Stations






























Interactive Weather Map New forecast layout! Learn more

10-Day Weather Forecast

Advertisements
Track Severe Weather on mobile